sensor_id;sensor_type;location;lat;lon;timestamp;P1;durP1;ratioP1;P2;durP2;ratioP2
3311;SDS011;1668;49.648;8.570;2023-06-22T00:00:48;7.00;;;5.90;;
3311;SDS011;1668;49.648;8.570;2023-06-22T00:03:17;7.70;;;6.60;;
3311;SDS011;1668;49.648;8.570;2023-06-22T00:05:44;12.23;;;7.30;;
3311;SDS011;1668;49.648;8.570;2023-06-22T00:08:11;8.30;;;6.20;;
3311;SDS011;1668;49.648;8.570;2023-06-22T00:10:39;7.93;;;7.13;;
3311;SDS011;1668;49.648;8.570;2023-06-22T00:13:06;6.87;;;6.17;;
3311;SDS011;1668;49.648;8.570;2023-06-22T00:15:35;7.27;;;6.53;;
3311;SDS011;1668;49.648;8.570;2023-06-22T00:18:02;7.77;;;6.97;;
3311;SDS011;1668;49.648;8.570;2023-06-22T00:20:29;7.50;;;6.63;;
3311;SDS011;1668;49.648;8.570;2023-06-22T00:22:58;9.17;;;7.10;;
3311;SDS011;1668;49.648;8.570;2023-06-22T00:25:26;9.53;;;7.20;;
3311;SDS011;1668;49.648;8.570;2023-06-22T00:27:53;13.20;;;7.67;;
3311;SDS011;1668;49.648;8.570;2023-06-22T00:30:20;8.53;;;7.70;;
3311;SDS011;1668;49.648;8.570;2023-06-22T00:32:48;8.40;;;7.10;;
3311;SDS011;1668;49.648;8.570;2023-06-22T00:35:14;8.20;;;7.03;;
3311;SDS011;1668;49.648;8.570;2023-06-22T00:37:41;7.40;;;6.60;;
3311;SDS011;1668;49.648;8.570;2023-06-22T00:40:08;10.37;;;7.80;;
3311;SDS011;1668;49.648;8.570;2023-06-22T00:42:37;8.97;;;7.57;;
3311;SDS011;1668;49.648;8.570;2023-06-22T00:45:05;9.57;;;7.70;;
3311;SDS011;1668;49.648;8.570;2023-06-22T00:47:32;10.27;;;7.27;;
3311;SDS011;1668;49.648;8.570;2023-06-22T00:50:03;9.20;;;7.40;;
3311;SDS011;1668;49.648;8.570;2023-06-22T00:52:33;9.17;;;7.97;;
3311;SDS011;1668;49.648;8.570;2023-06-22T00:55:01;9.17;;;7.80;;
3311;SDS011;1668;49.648;8.570;2023-06-22T00:57:28;9.10;;;7.67;;
3311;SDS011;1668;49.648;8.570;2023-06-22T00:59:56;10.73;;;7.63;;
3311;SDS011;1668;49.648;8.570;2023-06-22T01:02:23;10.37;;;8.10;;
3311;SDS011;1668;49.648;8.570;2023-06-22T01:04:50;9.20;;;7.27;;
3311;SDS011;1668;49.648;8.570;2023-06-22T01:07:19;11.03;;;7.80;;
3311;SDS011;1668;49.648;8.570;2023-06-22T01:10:04;12.90;;;8.40;;
3311;SDS011;1668;49.648;8.570;2023-06-22T01:12:38;10.73;;;8.83;;
3311;SDS011;1668;49.648;8.570;2023-06-22T01:15:10;13.63;;;8.83;;
3311;SDS011;1668;49.648;8.570;2023-06-22T01:17:42;10.73;;;8.23;;
3311;SDS011;1668;49.648;8.570;2023-06-22T01:20:10;10.40;;;9.20;;
3311;SDS011;1668;49.648;8.570;2023-06-22T01:22:46;12.17;;;8.70;;
3311;SDS011;1668;49.648;8.570;2023-06-22T01:25:26;10.87;;;8.10;;
3311;SDS011;1668;49.648;8.570;2023-06-22T01:28:00;10.80;;;9.13;;
3311;SDS011;1668;49.648;8.570;2023-06-22T01:30:33;10.70;;;8.33;;
3311;SDS011;1668;49.648;8.570;2023-06-22T01:33:00;10.17;;;9.17;;
3311;SDS011;1668;49.648;8.570;2023-06-22T01:35:29;14.30;;;8.60;;
3311;SDS011;1668;49.648;8.570;2023-06-22T01:37:56;10.90;;;9.20;;
3311;SDS011;1668;49.648;8.570;2023-06-22T01:40:24;10.37;;;9.00;;
3311;SDS011;1668;49.648;8.570;2023-06-22T01:42:51;10.23;;;8.87;;
3311;SDS011;1668;49.648;8.570;2023-06-22T01:45:19;11.87;;;8.97;;
3311;SDS011;1668;49.648;8.570;2023-06-22T01:47:49;11.17;;;8.63;;
3311;SDS011;1668;49.648;8.570;2023-06-22T01:50:16;9.73;;;8.33;;
3311;SDS011;1668;49.648;8.570;2023-06-22T01:52:43;9.77;;;8.50;;
3311;SDS011;1668;49.648;8.570;2023-06-22T01:55:10;10.10;;;7.83;;
3311;SDS011;1668;49.648;8.570;2023-06-22T01:57:37;13.13;;;9.30;;
3311;SDS011;1668;49.648;8.570;2023-06-22T02:00:05;10.60;;;8.70;;
3311;SDS011;1668;49.648;8.570;2023-06-22T02:02:39;11.30;;;9.10;;
3311;SDS011;1668;49.648;8.570;2023-06-22T02:05:11;10.83;;;9.47;;
3311;SDS011;1668;49.648;8.570;2023-06-22T02:07:41;12.23;;;9.27;;
3311;SDS011;1668;49.648;8.570;2023-06-22T02:10:13;9.33;;;8.33;;
3311;SDS011;1668;49.648;8.570;2023-06-22T02:12:42;11.63;;;9.33;;
3311;SDS011;1668;49.648;8.570;2023-06-22T02:15:10;9.90;;;8.63;;
3311;SDS011;1668;49.648;8.570;2023-06-22T02:17:39;9.70;;;8.70;;
3311;SDS011;1668;49.648;8.570;2023-06-22T02:20:13;12.60;;;9.00;;
3311;SDS011;1668;49.648;8.570;2023-06-22T02:22:40;10.63;;;8.20;;
3311;SDS011;1668;49.648;8.570;2023-06-22T02:25:07;14.43;;;8.90;;
3311;SDS011;1668;49.648;8.570;2023-06-22T02:27:34;9.53;;;8.43;;
3311;SDS011;1668;49.648;8.570;2023-06-22T02:30:01;11.30;;;10.10;;
3311;SDS011;1668;49.648;8.570;2023-06-22T02:32:28;10.20;;;9.10;;
3311;SDS011;1668;49.648;8.570;2023-06-22T02:34:55;10.93;;;8.50;;
3311;SDS011;1668;49.648;8.570;2023-06-22T02:37:24;12.27;;;8.77;;
3311;SDS011;1668;49.648;8.570;2023-06-22T02:39:54;11.23;;;8.63;;
3311;SDS011;1668;49.648;8.570;2023-06-22T02:42:21;12.07;;;9.10;;
3311;SDS011;1668;49.648;8.570;2023-06-22T02:44:48;13.60;;;9.50;;
3311;SDS011;1668;49.648;8.570;2023-06-22T02:47:15;10.27;;;9.03;;
3311;SDS011;1668;49.648;8.570;2023-06-22T02:49:42;11.47;;;9.17;;
3311;SDS011;1668;49.648;8.570;2023-06-22T02:52:10;11.13;;;9.10;;
3311;SDS011;1668;49.648;8.570;2023-06-22T02:54:38;10.77;;;9.43;;
3311;SDS011;1668;49.648;8.570;2023-06-22T02:57:05;13.00;;;9.33;;
3311;SDS011;1668;49.648;8.570;2023-06-22T02:59:32;11.30;;;9.17;;
3311;SDS011;1668;49.648;8.570;2023-06-22T03:01:58;12.30;;;9.60;;
3311;SDS011;1668;49.648;8.570;2023-06-22T03:04:25;9.90;;;8.90;;
3311;SDS011;1668;49.648;8.570;2023-06-22T03:06:52;12.73;;;9.70;;
3311;SDS011;1668;49.648;8.570;2023-06-22T03:09:19;13.40;;;8.90;;
3311;SDS011;1668;49.648;8.570;2023-06-22T03:11:47;11.87;;;9.27;;
3311;SDS011;1668;49.648;8.570;2023-06-22T03:14:14;12.00;;;10.03;;
3311;SDS011;1668;49.648;8.570;2023-06-22T03:16:41;12.17;;;9.97;;
3311;SDS011;1668;49.648;8.570;2023-06-22T03:19:08;13.07;;;9.57;;
3311;SDS011;1668;49.648;8.570;2023-06-22T03:21:36;14.97;;;9.30;;
3311;SDS011;1668;49.648;8.570;2023-06-22T03:24:04;12.23;;;9.13;;
3311;SDS011;1668;49.648;8.570;2023-06-22T03:26:32;16.43;;;10.30;;
3311;SDS011;1668;49.648;8.570;2023-06-22T03:29:00;10.07;;;9.07;;
3311;SDS011;1668;49.648;8.570;2023-06-22T03:31:28;11.90;;;9.67;;
3311;SDS011;1668;49.648;8.570;2023-06-22T03:33:55;11.90;;;9.83;;
3311;SDS011;1668;49.648;8.570;2023-06-22T03:36:22;13.13;;;9.40;;
3311;SDS011;1668;49.648;8.570;2023-06-22T03:38:49;12.00;;;9.40;;
3311;SDS011;1668;49.648;8.570;2023-06-22T03:41:17;9.63;;;8.53;;
3311;SDS011;1668;49.648;8.570;2023-06-22T03:43:43;10.70;;;9.27;;
3311;SDS011;1668;49.648;8.570;2023-06-22T03:46:12;10.87;;;8.90;;
3311;SDS011;1668;49.648;8.570;2023-06-22T03:48:38;12.33;;;8.93;;
3311;SDS011;1668;49.648;8.570;2023-06-22T03:51:05;9.80;;;8.43;;
3311;SDS011;1668;49.648;8.570;2023-06-22T03:53:32;9.23;;;8.30;;
3311;SDS011;1668;49.648;8.570;2023-06-22T03:56:02;12.77;;;9.30;;
3311;SDS011;1668;49.648;8.570;2023-06-22T03:58:30;11.83;;;7.80;;
3311;SDS011;1668;49.648;8.570;2023-06-22T04:00:57;9.57;;;7.97;;
3311;SDS011;1668;49.648;8.570;2023-06-22T04:03:27;10.57;;;8.37;;
3311;SDS011;1668;49.648;8.570;2023-06-22T04:05:54;9.53;;;8.50;;
3311;SDS011;1668;49.648;8.570;2023-06-22T04:08:20;9.47;;;8.47;;
3311;SDS011;1668;49.648;8.570;2023-06-22T04:10:47;9.40;;;8.30;;
3311;SDS011;1668;49.648;8.570;2023-06-22T04:13:14;10.03;;;8.43;;
3311;SDS011;1668;49.648;8.570;2023-06-22T04:15:41;12.43;;;8.50;;
3311;SDS011;1668;49.648;8.570;2023-06-22T04:18:08;15.40;;;9.40;;
3311;SDS011;1668;49.648;8.570;2023-06-22T04:20:36;10.07;;;9.07;;
3311;SDS011;1668;49.648;8.570;2023-06-22T04:23:03;11.20;;;10.07;;
3311;SDS011;1668;49.648;8.570;2023-06-22T04:25:30;11.27;;;9.20;;
3311;SDS011;1668;49.648;8.570;2023-06-22T04:27:57;12.10;;;8.67;;
3311;SDS011;1668;49.648;8.570;2023-06-22T04:30:24;11.87;;;9.20;;
3311;SDS011;1668;49.648;8.570;2023-06-22T04:32:51;11.50;;;10.30;;
3311;SDS011;1668;49.648;8.570;2023-06-22T04:35:22;11.27;;;9.17;;
3311;SDS011;1668;49.648;8.570;2023-06-22T04:37:52;15.80;;;9.67;;
3311;SDS011;1668;49.648;8.570;2023-06-22T04:40:21;11.10;;;9.63;;
3311;SDS011;1668;49.648;8.570;2023-06-22T04:42:48;10.30;;;9.30;;
3311;SDS011;1668;49.648;8.570;2023-06-22T04:45:18;11.53;;;9.50;;
3311;SDS011;1668;49.648;8.570;2023-06-22T04:47:46;11.30;;;9.70;;
3311;SDS011;1668;49.648;8.570;2023-06-22T04:50:13;11.47;;;9.23;;
3311;SDS011;1668;49.648;8.570;2023-06-22T04:52:40;11.67;;;9.30;;
3311;SDS011;1668;49.648;8.570;2023-06-22T04:55:08;17.53;;;9.70;;
3311;SDS011;1668;49.648;8.570;2023-06-22T04:57:35;9.60;;;8.60;;
3311;SDS011;1668;49.648;8.570;2023-06-22T05:00:05;11.20;;;9.77;;
3311;SDS011;1668;49.648;8.570;2023-06-22T05:02:37;12.30;;;10.50;;
3311;SDS011;1668;49.648;8.570;2023-06-22T05:05:04;12.70;;;9.37;;
3311;SDS011;1668;49.648;8.570;2023-06-22T05:07:32;11.50;;;10.03;;
3311;SDS011;1668;49.648;8.570;2023-06-22T05:09:59;13.77;;;10.53;;
3311;SDS011;1668;49.648;8.570;2023-06-22T05:12:29;10.80;;;9.67;;
3311;SDS011;1668;49.648;8.570;2023-06-22T05:14:56;14.27;;;10.67;;
3311;SDS011;1668;49.648;8.570;2023-06-22T05:17:23;11.37;;;9.37;;
3311;SDS011;1668;49.648;8.570;2023-06-22T05:19:50;12.33;;;10.13;;
3311;SDS011;1668;49.648;8.570;2023-06-22T05:22:17;11.20;;;9.67;;
3311;SDS011;1668;49.648;8.570;2023-06-22T05:24:44;9.83;;;8.83;;
3311;SDS011;1668;49.648;8.570;2023-06-22T05:27:11;13.53;;;10.27;;
3311;SDS011;1668;49.648;8.570;2023-06-22T05:29:40;10.63;;;9.53;;
3311;SDS011;1668;49.648;8.570;2023-06-22T05:32:07;11.23;;;9.37;;
3311;SDS011;1668;49.648;8.570;2023-06-22T05:34:34;13.23;;;10.53;;
3311;SDS011;1668;49.648;8.570;2023-06-22T05:37:01;11.23;;;10.13;;
3311;SDS011;1668;49.648;8.570;2023-06-22T05:39:29;11.23;;;10.03;;
3311;SDS011;1668;49.648;8.570;2023-06-22T05:41:55;11.33;;;9.17;;
3311;SDS011;1668;49.648;8.570;2023-06-22T05:44:22;12.20;;;10.50;;
3311;SDS011;1668;49.648;8.570;2023-06-22T05:46:51;11.67;;;9.37;;
3311;SDS011;1668;49.648;8.570;2023-06-22T05:49:17;12.23;;;10.07;;
3311;SDS011;1668;49.648;8.570;2023-06-22T05:51:47;14.13;;;9.50;;
3311;SDS011;1668;49.648;8.570;2023-06-22T05:54:13;12.93;;;9.30;;
3311;SDS011;1668;49.648;8.570;2023-06-22T05:56:43;11.77;;;9.80;;
3311;SDS011;1668;49.648;8.570;2023-06-22T05:59:09;12.30;;;9.30;;
3311;SDS011;1668;49.648;8.570;2023-06-22T06:01:37;12.60;;;9.30;;
3311;SDS011;1668;49.648;8.570;2023-06-22T06:04:06;16.70;;;9.23;;
3311;SDS011;1668;49.648;8.570;2023-06-22T06:06:34;9.70;;;8.70;;
3311;SDS011;1668;49.648;8.570;2023-06-22T06:09:02;11.60;;;8.60;;
3311;SDS011;1668;49.648;8.570;2023-06-22T06:11:29;9.93;;;8.93;;
3311;SDS011;1668;49.648;8.570;2023-06-22T06:13:56;9.60;;;8.60;;
3311;SDS011;1668;49.648;8.570;2023-06-22T06:16:23;10.60;;;7.47;;
3311;SDS011;1668;49.648;8.570;2023-06-22T06:18:50;14.20;;;8.00;;
3311;SDS011;1668;49.648;8.570;2023-06-22T06:21:19;11.87;;;8.90;;
3311;SDS011;1668;49.648;8.570;2023-06-22T06:23:46;9.77;;;8.67;;
3311;SDS011;1668;49.648;8.570;2023-06-22T06:26:13;9.77;;;8.40;;
3311;SDS011;1668;49.648;8.570;2023-06-22T06:28:41;12.37;;;8.60;;
3311;SDS011;1668;49.648;8.570;2023-06-22T06:31:08;9.93;;;7.83;;
3311;SDS011;1668;49.648;8.570;2023-06-22T06:33:35;9.40;;;8.17;;
3311;SDS011;1668;49.648;8.570;2023-06-22T06:36:02;10.70;;;7.87;;
3311;SDS011;1668;49.648;8.570;2023-06-22T06:38:30;12.53;;;7.90;;
3311;SDS011;1668;49.648;8.570;2023-06-22T06:40:57;7.60;;;6.90;;
3311;SDS011;1668;49.648;8.570;2023-06-22T06:43:24;12.13;;;7.47;;
3311;SDS011;1668;49.648;8.570;2023-06-22T06:45:51;10.33;;;7.33;;
3311;SDS011;1668;49.648;8.570;2023-06-22T06:48:18;9.13;;;7.80;;
3311;SDS011;1668;49.648;8.570;2023-06-22T06:50:44;8.93;;;6.80;;
3311;SDS011;1668;49.648;8.570;2023-06-22T06:53:11;9.93;;;7.53;;
3311;SDS011;1668;49.648;8.570;2023-06-22T06:55:39;8.00;;;7.20;;
3311;SDS011;1668;49.648;8.570;2023-06-22T06:58:06;8.90;;;8.00;;
3311;SDS011;1668;49.648;8.570;2023-06-22T07:00:34;10.33;;;8.10;;
3311;SDS011;1668;49.648;8.570;2023-06-22T07:03:02;8.17;;;7.30;;
3311;SDS011;1668;49.648;8.570;2023-06-22T07:05:29;8.00;;;6.87;;
3311;SDS011;1668;49.648;8.570;2023-06-22T07:07:55;9.13;;;7.93;;
3311;SDS011;1668;49.648;8.570;2023-06-22T07:10:22;8.80;;;7.60;;
3311;SDS011;1668;49.648;8.570;2023-06-22T07:12:50;8.87;;;7.27;;
3311;SDS011;1668;49.648;8.570;2023-06-22T07:15:17;10.43;;;7.27;;
3311;SDS011;1668;49.648;8.570;2023-06-22T07:17:44;11.10;;;7.17;;
3311;SDS011;1668;49.648;8.570;2023-06-22T07:20:11;11.93;;;8.17;;
3311;SDS011;1668;49.648;8.570;2023-06-22T07:22:38;10.50;;;7.40;;
3311;SDS011;1668;49.648;8.570;2023-06-22T07:25:06;10.00;;;8.03;;
3311;SDS011;1668;49.648;8.570;2023-06-22T07:27:35;9.60;;;7.83;;
3311;SDS011;1668;49.648;8.570;2023-06-22T07:30:05;8.30;;;7.43;;
3311;SDS011;1668;49.648;8.570;2023-06-22T07:32:33;8.30;;;7.50;;
3311;SDS011;1668;49.648;8.570;2023-06-22T07:35:00;8.50;;;7.57;;
3311;SDS011;1668;49.648;8.570;2023-06-22T07:37:27;9.47;;;7.63;;
3311;SDS011;1668;49.648;8.570;2023-06-22T07:39:54;9.67;;;7.90;;
3311;SDS011;1668;49.648;8.570;2023-06-22T07:42:23;11.90;;;8.50;;
3311;SDS011;1668;49.648;8.570;2023-06-22T07:44:50;8.37;;;7.50;;
3311;SDS011;1668;49.648;8.570;2023-06-22T07:47:18;14.30;;;8.07;;
3311;SDS011;1668;49.648;8.570;2023-06-22T07:49:45;11.33;;;8.07;;
3311;SDS011;1668;49.648;8.570;2023-06-22T07:52:12;8.87;;;7.97;;
3311;SDS011;1668;49.648;8.570;2023-06-22T07:54:39;8.63;;;7.73;;
3311;SDS011;1668;49.648;8.570;2023-06-22T07:57:06;9.83;;;8.40;;
3311;SDS011;1668;49.648;8.570;2023-06-22T07:59:32;10.57;;;7.77;;
3311;SDS011;1668;49.648;8.570;2023-06-22T08:02:00;8.50;;;7.70;;
3311;SDS011;1668;49.648;8.570;2023-06-22T08:04:29;11.70;;;8.50;;
3311;SDS011;1668;49.648;8.570;2023-06-22T08:06:59;13.50;;;8.13;;
3311;SDS011;1668;49.648;8.570;2023-06-22T08:09:27;10.70;;;7.10;;
3311;SDS011;1668;49.648;8.570;2023-06-22T08:11:54;7.50;;;6.70;;
3311;SDS011;1668;49.648;8.570;2023-06-22T08:14:21;8.17;;;7.37;;
3311;SDS011;1668;49.648;8.570;2023-06-22T08:16:48;10.07;;;8.40;;
3311;SDS011;1668;49.648;8.570;2023-06-22T08:19:15;9.23;;;8.33;;
3311;SDS011;1668;49.648;8.570;2023-06-22T08:21:44;10.80;;;8.20;;
3311;SDS011;1668;49.648;8.570;2023-06-22T08:24:11;8.30;;;7.50;;
3311;SDS011;1668;49.648;8.570;2023-06-22T08:26:38;11.83;;;8.50;;
3311;SDS011;1668;49.648;8.570;2023-06-22T08:29:04;8.83;;;7.93;;
3311;SDS011;1668;49.648;8.570;2023-06-22T08:31:31;10.33;;;7.70;;
3311;SDS011;1668;49.648;8.570;2023-06-22T08:33:59;10.10;;;8.57;;
3311;SDS011;1668;49.648;8.570;2023-06-22T08:36:26;8.43;;;7.53;;
3311;SDS011;1668;49.648;8.570;2023-06-22T08:39:01;11.80;;;7.50;;
3311;SDS011;1668;49.648;8.570;2023-06-22T08:41:28;9.30;;;8.30;;
3311;SDS011;1668;49.648;8.570;2023-06-22T08:43:55;8.23;;;7.43;;
3311;SDS011;1668;49.648;8.570;2023-06-22T08:46:22;8.93;;;7.63;;
3311;SDS011;1668;49.648;8.570;2023-06-22T08:48:55;8.30;;;7.27;;
3311;SDS011;1668;49.648;8.570;2023-06-22T08:51:22;9.10;;;8.20;;
3311;SDS011;1668;49.648;8.570;2023-06-22T08:53:48;8.60;;;7.70;;
3311;SDS011;1668;49.648;8.570;2023-06-22T08:56:17;7.80;;;6.70;;
3311;SDS011;1668;49.648;8.570;2023-06-22T08:58:44;8.80;;;7.57;;
3311;SDS011;1668;49.648;8.570;2023-06-22T09:01:10;9.00;;;7.70;;
3311;SDS011;1668;49.648;8.570;2023-06-22T09:03:37;10.20;;;7.40;;
3311;SDS011;1668;49.648;8.570;2023-06-22T09:06:04;11.77;;;7.90;;
3311;SDS011;1668;49.648;8.570;2023-06-22T09:08:31;8.70;;;7.80;;
3311;SDS011;1668;49.648;8.570;2023-06-22T09:10:58;10.40;;;8.37;;
3311;SDS011;1668;49.648;8.570;2023-06-22T09:13:27;9.37;;;7.80;;
3311;SDS011;1668;49.648;8.570;2023-06-22T09:15:55;9.13;;;6.60;;
3311;SDS011;1668;49.648;8.570;2023-06-22T09:18:22;7.90;;;7.10;;
3311;SDS011;1668;49.648;8.570;2023-06-22T09:20:49;8.00;;;7.20;;
3311;SDS011;1668;49.648;8.570;2023-06-22T09:23:16;11.70;;;8.30;;
3311;SDS011;1668;49.648;8.570;2023-06-22T09:25:43;9.90;;;7.47;;
3311;SDS011;1668;49.648;8.570;2023-06-22T09:28:09;8.20;;;7.37;;
3311;SDS011;1668;49.648;8.570;2023-06-22T09:30:38;9.10;;;8.00;;
3311;SDS011;1668;49.648;8.570;2023-06-22T09:33:04;8.40;;;7.50;;
3311;SDS011;1668;49.648;8.570;2023-06-22T09:35:31;8.90;;;7.70;;
3311;SDS011;1668;49.648;8.570;2023-06-22T09:37:59;7.90;;;7.10;;
3311;SDS011;1668;49.648;8.570;2023-06-22T09:40:25;9.80;;;8.03;;
3311;SDS011;1668;49.648;8.570;2023-06-22T09:42:52;13.70;;;7.70;;
3311;SDS011;1668;49.648;8.570;2023-06-22T09:45:19;16.10;;;7.37;;
3311;SDS011;1668;49.648;8.570;2023-06-22T09:47:47;10.80;;;7.40;;
3311;SDS011;1668;49.648;8.570;2023-06-22T09:50:14;10.00;;;7.67;;
3311;SDS011;1668;49.648;8.570;2023-06-22T09:52:41;9.60;;;7.03;;
3311;SDS011;1668;49.648;8.570;2023-06-22T09:55:09;10.00;;;7.03;;
3311;SDS011;1668;49.648;8.570;2023-06-22T09:57:36;8.47;;;6.43;;
3311;SDS011;1668;49.648;8.570;2023-06-22T10:00:03;8.70;;;6.97;;
3311;SDS011;1668;49.648;8.570;2023-06-22T10:02:33;9.33;;;7.27;;
3311;SDS011;1668;49.648;8.570;2023-06-22T10:05:02;10.23;;;6.30;;
3311;SDS011;1668;49.648;8.570;2023-06-22T10:07:29;8.30;;;6.67;;
3311;SDS011;1668;49.648;8.570;2023-06-22T10:09:55;8.47;;;6.13;;
3311;SDS011;1668;49.648;8.570;2023-06-22T10:12:22;10.93;;;7.03;;
3311;SDS011;1668;49.648;8.570;2023-06-22T10:14:49;8.00;;;6.50;;
3311;SDS011;1668;49.648;8.570;2023-06-22T10:17:16;8.83;;;6.30;;
3311;SDS011;1668;49.648;8.570;2023-06-22T10:19:42;11.97;;;6.00;;
3311;SDS011;1668;49.648;8.570;2023-06-22T10:22:10;11.20;;;6.13;;
3311;SDS011;1668;49.648;8.570;2023-06-22T10:24:37;11.30;;;6.33;;
3311;SDS011;1668;49.648;8.570;2023-06-22T10:27:09;13.07;;;5.80;;
3311;SDS011;1668;49.648;8.570;2023-06-22T10:29:37;7.30;;;5.60;;
3311;SDS011;1668;49.648;8.570;2023-06-22T10:32:04;7.47;;;6.27;;
3311;SDS011;1668;49.648;8.570;2023-06-22T10:34:32;8.63;;;6.20;;
3311;SDS011;1668;49.648;8.570;2023-06-22T10:36:58;8.13;;;6.03;;
3311;SDS011;1668;49.648;8.570;2023-06-22T10:39:27;8.90;;;6.07;;
3311;SDS011;1668;49.648;8.570;2023-06-22T10:41:53;8.47;;;5.20;;
3311;SDS011;1668;49.648;8.570;2023-06-22T10:44:22;9.50;;;6.20;;
3311;SDS011;1668;49.648;8.570;2023-06-22T10:46:49;10.10;;;6.57;;
3311;SDS011;1668;49.648;8.570;2023-06-22T10:49:15;9.30;;;6.27;;
3311;SDS011;1668;49.648;8.570;2023-06-22T10:51:42;8.20;;;5.33;;
3311;SDS011;1668;49.648;8.570;2023-06-22T10:54:09;8.10;;;5.60;;
3311;SDS011;1668;49.648;8.570;2023-06-22T10:56:40;7.80;;;5.57;;
3311;SDS011;1668;49.648;8.570;2023-06-22T10:59:06;8.30;;;6.17;;
3311;SDS011;1668;49.648;8.570;2023-06-22T11:01:33;8.33;;;5.57;;
3311;SDS011;1668;49.648;8.570;2023-06-22T11:04:00;10.57;;;6.10;;
3311;SDS011;1668;49.648;8.570;2023-06-22T11:06:27;7.30;;;5.97;;
3311;SDS011;1668;49.648;8.570;2023-06-22T11:08:53;8.93;;;5.97;;
3311;SDS011;1668;49.648;8.570;2023-06-22T11:11:20;8.87;;;5.87;;
3311;SDS011;1668;49.648;8.570;2023-06-22T11:13:48;10.40;;;5.30;;
3311;SDS011;1668;49.648;8.570;2023-06-22T11:16:15;11.27;;;6.07;;
3311;SDS011;1668;49.648;8.570;2023-06-22T11:18:42;7.03;;;5.17;;
3311;SDS011;1668;49.648;8.570;2023-06-22T11:21:08;7.73;;;5.10;;
3311;SDS011;1668;49.648;8.570;2023-06-22T11:23:35;10.23;;;6.23;;
3311;SDS011;1668;49.648;8.570;2023-06-22T11:26:02;11.67;;;5.97;;
3311;SDS011;1668;49.648;8.570;2023-06-22T11:28:29;10.60;;;5.73;;
3311;SDS011;1668;49.648;8.570;2023-06-22T11:30:57;9.53;;;5.00;;
3311;SDS011;1668;49.648;8.570;2023-06-22T11:33:24;7.53;;;5.80;;
3311;SDS011;1668;49.648;8.570;2023-06-22T11:35:50;8.50;;;5.23;;
3311;SDS011;1668;49.648;8.570;2023-06-22T11:38:17;10.10;;;5.43;;
3311;SDS011;1668;49.648;8.570;2023-06-22T11:40:44;11.10;;;6.10;;
3311;SDS011;1668;49.648;8.570;2023-06-22T11:45:39;9.40;;;5.37;;
3311;SDS011;1668;49.648;8.570;2023-06-22T11:48:06;8.27;;;5.50;;
3311;SDS011;1668;49.648;8.570;2023-06-22T11:50:33;9.40;;;5.97;;
3311;SDS011;1668;49.648;8.570;2023-06-22T11:53:01;12.80;;;5.43;;
3311;SDS011;1668;49.648;8.570;2023-06-22T11:55:28;9.00;;;5.70;;
3311;SDS011;1668;49.648;8.570;2023-06-22T11:57:56;9.20;;;5.90;;
3311;SDS011;1668;49.648;8.570;2023-06-22T12:00:27;11.33;;;6.07;;
3311;SDS011;1668;49.648;8.570;2023-06-22T12:02:56;11.03;;;6.50;;
3311;SDS011;1668;49.648;8.570;2023-06-22T12:05:23;9.40;;;5.77;;
3311;SDS011;1668;49.648;8.570;2023-06-22T12:07:50;12.00;;;6.00;;
3311;SDS011;1668;49.648;8.570;2023-06-22T12:10:19;8.83;;;6.10;;
3311;SDS011;1668;49.648;8.570;2023-06-22T12:12:46;7.23;;;5.33;;
3311;SDS011;1668;49.648;8.570;2023-06-22T12:15:13;11.47;;;6.03;;
3311;SDS011;1668;49.648;8.570;2023-06-22T12:17:40;12.63;;;6.30;;
3311;SDS011;1668;49.648;8.570;2023-06-22T12:20:09;18.77;;;6.50;;
3311;SDS011;1668;49.648;8.570;2023-06-22T12:22:38;11.70;;;6.20;;
3311;SDS011;1668;49.648;8.570;2023-06-22T12:25:05;10.30;;;5.80;;
3311;SDS011;1668;49.648;8.570;2023-06-22T12:27:33;8.90;;;6.20;;
3311;SDS011;1668;49.648;8.570;2023-06-22T12:30:00;10.10;;;6.30;;
3311;SDS011;1668;49.648;8.570;2023-06-22T12:32:29;8.83;;;5.43;;
3311;SDS011;1668;49.648;8.570;2023-06-22T12:34:56;10.97;;;5.97;;
3311;SDS011;1668;49.648;8.570;2023-06-22T12:37:25;10.80;;;6.37;;
3311;SDS011;1668;49.648;8.570;2023-06-22T12:39:53;11.73;;;6.23;;
3311;SDS011;1668;49.648;8.570;2023-06-22T12:42:20;13.00;;;5.47;;
3311;SDS011;1668;49.648;8.570;2023-06-22T12:44:47;10.40;;;5.77;;
3311;SDS011;1668;49.648;8.570;2023-06-22T12:47:14;9.90;;;6.30;;
3311;SDS011;1668;49.648;8.570;2023-06-22T12:49:42;6.17;;;5.57;;
3311;SDS011;1668;49.648;8.570;2023-06-22T12:52:09;11.43;;;6.23;;
3311;SDS011;1668;49.648;8.570;2023-06-22T12:54:38;10.27;;;5.77;;
3311;SDS011;1668;49.648;8.570;2023-06-22T12:57:06;10.10;;;5.00;;
3311;SDS011;1668;49.648;8.570;2023-06-22T12:59:33;9.93;;;5.20;;
3311;SDS011;1668;49.648;8.570;2023-06-22T13:02:00;11.53;;;6.10;;
3311;SDS011;1668;49.648;8.570;2023-06-22T13:04:27;11.13;;;5.80;;
3311;SDS011;1668;49.648;8.570;2023-06-22T13:06:54;12.93;;;5.47;;
3311;SDS011;1668;49.648;8.570;2023-06-22T13:09:21;11.37;;;6.03;;
3311;SDS011;1668;49.648;8.570;2023-06-22T13:11:50;9.70;;;5.77;;
3311;SDS011;1668;49.648;8.570;2023-06-22T13:14:17;10.53;;;5.47;;
3311;SDS011;1668;49.648;8.570;2023-06-22T13:16:44;9.50;;;5.10;;
3311;SDS011;1668;49.648;8.570;2023-06-22T13:19:11;13.10;;;6.33;;
3311;SDS011;1668;49.648;8.570;2023-06-22T13:21:38;7.90;;;5.53;;
3311;SDS011;1668;49.648;8.570;2023-06-22T13:24:05;11.73;;;5.30;;
3311;SDS011;1668;49.648;8.570;2023-06-22T13:26:33;8.37;;;4.60;;
3311;SDS011;1668;49.648;8.570;2023-06-22T13:29:01;10.77;;;5.23;;
3311;SDS011;1668;49.648;8.570;2023-06-22T13:31:28;10.23;;;5.53;;
3311;SDS011;1668;49.648;8.570;2023-06-22T13:33:55;11.40;;;5.50;;
3311;SDS011;1668;49.648;8.570;2023-06-22T13:36:22;10.20;;;5.37;;
3311;SDS011;1668;49.648;8.570;2023-06-22T13:38:49;12.13;;;5.43;;
3311;SDS011;1668;49.648;8.570;2023-06-22T13:41:16;10.60;;;5.00;;
3311;SDS011;1668;49.648;8.570;2023-06-22T13:43:43;15.80;;;5.20;;
3311;SDS011;1668;49.648;8.570;2023-06-22T13:46:11;14.33;;;5.47;;
3311;SDS011;1668;49.648;8.570;2023-06-22T13:48:38;8.00;;;4.83;;
3311;SDS011;1668;49.648;8.570;2023-06-22T13:51:05;13.23;;;5.20;;
3311;SDS011;1668;49.648;8.570;2023-06-22T13:53:32;9.63;;;5.60;;
3311;SDS011;1668;49.648;8.570;2023-06-22T13:55:59;8.90;;;5.40;;
3311;SDS011;1668;49.648;8.570;2023-06-22T13:58:26;9.93;;;5.90;;
3311;SDS011;1668;49.648;8.570;2023-06-22T14:00:53;10.73;;;5.20;;
3311;SDS011;1668;49.648;8.570;2023-06-22T14:03:21;11.73;;;4.80;;
3311;SDS011;1668;49.648;8.570;2023-06-22T14:05:48;11.23;;;5.50;;
3311;SDS011;1668;49.648;8.570;2023-06-22T14:08:15;9.13;;;4.77;;
3311;SDS011;1668;49.648;8.570;2023-06-22T14:10:42;16.83;;;5.13;;
3311;SDS011;1668;49.648;8.570;2023-06-22T14:13:10;12.80;;;5.80;;
3311;SDS011;1668;49.648;8.570;2023-06-22T14:15:37;11.07;;;5.53;;
3311;SDS011;1668;49.648;8.570;2023-06-22T14:18:05;9.00;;;5.00;;
3311;SDS011;1668;49.648;8.570;2023-06-22T14:20:33;14.00;;;5.87;;
3311;SDS011;1668;49.648;8.570;2023-06-22T14:23:00;10.00;;;5.50;;
3311;SDS011;1668;49.648;8.570;2023-06-22T14:25:27;7.07;;;5.40;;
3311;SDS011;1668;49.648;8.570;2023-06-22T14:27:55;8.57;;;5.23;;
3311;SDS011;1668;49.648;8.570;2023-06-22T14:30:21;11.47;;;5.00;;
3311;SDS011;1668;49.648;8.570;2023-06-22T14:32:48;9.30;;;4.77;;
3311;SDS011;1668;49.648;8.570;2023-06-22T14:35:15;7.23;;;5.03;;
3311;SDS011;1668;49.648;8.570;2023-06-22T14:37:44;8.73;;;4.97;;
3311;SDS011;1668;49.648;8.570;2023-06-22T14:40:12;11.03;;;5.70;;
3311;SDS011;1668;49.648;8.570;2023-06-22T14:42:40;8.83;;;5.13;;
3311;SDS011;1668;49.648;8.570;2023-06-22T14:45:07;9.60;;;5.43;;
3311;SDS011;1668;49.648;8.570;2023-06-22T14:47:35;15.03;;;5.80;;
3311;SDS011;1668;49.648;8.570;2023-06-22T14:50:03;13.53;;;5.57;;
3311;SDS011;1668;49.648;8.570;2023-06-22T14:52:31;14.30;;;5.83;;
3311;SDS011;1668;49.648;8.570;2023-06-22T14:55:00;10.20;;;5.30;;
3311;SDS011;1668;49.648;8.570;2023-06-22T14:57:26;10.30;;;5.60;;
3311;SDS011;1668;49.648;8.570;2023-06-22T14:59:53;9.30;;;5.90;;
3311;SDS011;1668;49.648;8.570;2023-06-22T15:02:20;12.60;;;5.00;;
3311;SDS011;1668;49.648;8.570;2023-06-22T15:04:47;11.40;;;5.83;;
3311;SDS011;1668;49.648;8.570;2023-06-22T15:07:15;11.93;;;5.70;;
3311;SDS011;1668;49.648;8.570;2023-06-22T15:09:42;11.60;;;5.17;;
3311;SDS011;1668;49.648;8.570;2023-06-22T15:12:11;10.30;;;5.60;;